sensor_id;sensor_type;location;lat;lon;timestamp;P1;durP1;ratioP1;P2;durP2;ratioP2
17052;SDS011;8643;48.824;11.422;2024-03-25T00:00:49;2.97;;;1.80;;
17052;SDS011;8643;48.824;11.422;2024-03-25T00:03:16;6.53;;;2.00;;
17052;SDS011;8643;48.824;11.422;2024-03-25T00:05:43;3.90;;;1.80;;
17052;SDS011;8643;48.824;11.422;2024-03-25T00:08:09;4.77;;;2.07;;
17052;SDS011;8643;48.824;11.422;2024-03-25T00:10:37;5.77;;;2.27;;
17052;SDS011;8643;48.824;11.422;2024-03-25T00:13:05;4.93;;;1.90;;
17052;SDS011;8643;48.824;11.422;2024-03-25T00:15:32;6.63;;;2.13;;
17052;SDS011;8643;48.824;11.422;2024-03-25T00:17:59;6.20;;;2.00;;
17052;SDS011;8643;48.824;11.422;2024-03-25T00:20:27;4.57;;;2.20;;
17052;SDS011;8643;48.824;11.422;2024-03-25T00:22:53;3.57;;;2.23;;
17052;SDS011;8643;48.824;11.422;2024-03-25T00:25:21;4.13;;;2.37;;
17052;SDS011;8643;48.824;11.422;2024-03-25T00:27:47;5.30;;;2.20;;
17052;SDS011;8643;48.824;11.422;2024-03-25T00:30:16;6.10;;;2.40;;
17052;SDS011;8643;48.824;11.422;2024-03-25T00:32:43;4.90;;;2.20;;
17052;SDS011;8643;48.824;11.422;2024-03-25T00:35:11;4.07;;;2.43;;
17052;SDS011;8643;48.824;11.422;2024-03-25T00:37:38;3.60;;;1.90;;
17052;SDS011;8643;48.824;11.422;2024-03-25T00:40:06;4.03;;;2.20;;
17052;SDS011;8643;48.824;11.422;2024-03-25T00:42:34;3.73;;;1.90;;
17052;SDS011;8643;48.824;11.422;2024-03-25T00:45:01;6.87;;;2.33;;
17052;SDS011;8643;48.824;11.422;2024-03-25T00:47:32;6.13;;;2.47;;
17052;SDS011;8643;48.824;11.422;2024-03-25T00:50:00;4.03;;;2.07;;
17052;SDS011;8643;48.824;11.422;2024-03-25T00:52:26;4.10;;;2.03;;
17052;SDS011;8643;48.824;11.422;2024-03-25T00:54:54;4.63;;;2.13;;
17052;SDS011;8643;48.824;11.422;2024-03-25T00:57:20;3.73;;;1.97;;
17052;SDS011;8643;48.824;11.422;2024-03-25T00:59:48;8.17;;;2.63;;
17052;SDS011;8643;48.824;11.422;2024-03-25T01:02:14;4.27;;;2.23;;
17052;SDS011;8643;48.824;11.422;2024-03-25T01:04:43;3.23;;;1.93;;
17052;SDS011;8643;48.824;11.422;2024-03-25T01:07:10;3.67;;;2.30;;
17052;SDS011;8643;48.824;11.422;2024-03-25T01:09:38;3.57;;;2.23;;
17052;SDS011;8643;48.824;11.422;2024-03-25T01:12:04;3.40;;;1.80;;
17052;SDS011;8643;48.824;11.422;2024-03-25T01:14:32;5.70;;;2.13;;
17052;SDS011;8643;48.824;11.422;2024-03-25T01:16:59;5.23;;;2.03;;
17052;SDS011;8643;48.824;11.422;2024-03-25T01:19:26;4.57;;;2.10;;
17052;SDS011;8643;48.824;11.422;2024-03-25T01:21:54;4.27;;;2.03;;
17052;SDS011;8643;48.824;11.422;2024-03-25T01:24:22;5.10;;;2.00;;
17052;SDS011;8643;48.824;11.422;2024-03-25T01:26:48;7.67;;;1.97;;
17052;SDS011;8643;48.824;11.422;2024-03-25T01:29:16;3.77;;;2.10;;
17052;SDS011;8643;48.824;11.422;2024-03-25T01:31:42;5.77;;;2.20;;
17052;SDS011;8643;48.824;11.422;2024-03-25T01:34:10;4.83;;;2.10;;
17052;SDS011;8643;48.824;11.422;2024-03-25T01:36:36;4.10;;;2.20;;
17052;SDS011;8643;48.824;11.422;2024-03-25T01:39:06;3.50;;;1.70;;
17052;SDS011;8643;48.824;11.422;2024-03-25T01:41:32;3.57;;;2.07;;
17052;SDS011;8643;48.824;11.422;2024-03-25T01:44:00;6.03;;;2.33;;
17052;SDS011;8643;48.824;11.422;2024-03-25T01:46:27;4.90;;;2.40;;
17052;SDS011;8643;48.824;11.422;2024-03-25T01:48:55;4.13;;;2.30;;
17052;SDS011;8643;48.824;11.422;2024-03-25T01:51:23;5.37;;;2.40;;
17052;SDS011;8643;48.824;11.422;2024-03-25T01:53:52;5.00;;;2.30;;
17052;SDS011;8643;48.824;11.422;2024-03-25T01:56:23;4.17;;;2.30;;
17052;SDS011;8643;48.824;11.422;2024-03-25T01:58:51;3.40;;;2.00;;
17052;SDS011;8643;48.824;11.422;2024-03-25T02:01:18;6.70;;;2.37;;
17052;SDS011;8643;48.824;11.422;2024-03-25T02:03:47;6.87;;;2.43;;
17052;SDS011;8643;48.824;11.422;2024-03-25T02:06:15;7.13;;;2.57;;
17052;SDS011;8643;48.824;11.422;2024-03-25T02:08:44;9.30;;;2.90;;
17052;SDS011;8643;48.824;11.422;2024-03-25T02:11:12;8.13;;;2.67;;
17052;SDS011;8643;48.824;11.422;2024-03-25T02:13:43;7.30;;;2.77;;
17052;SDS011;8643;48.824;11.422;2024-03-25T02:16:09;6.47;;;2.73;;
17052;SDS011;8643;48.824;11.422;2024-03-25T02:18:37;6.93;;;2.97;;
17052;SDS011;8643;48.824;11.422;2024-03-25T02:21:04;3.63;;;2.17;;
17052;SDS011;8643;48.824;11.422;2024-03-25T02:23:32;6.47;;;2.77;;
17052;SDS011;8643;48.824;11.422;2024-03-25T02:26:01;4.33;;;2.50;;
17052;SDS011;8643;48.824;11.422;2024-03-25T02:28:28;4.03;;;2.50;;
17052;SDS011;8643;48.824;11.422;2024-03-25T02:30:55;4.83;;;2.83;;
17052;SDS011;8643;48.824;11.422;2024-03-25T02:33:22;8.10;;;2.80;;
17052;SDS011;8643;48.824;11.422;2024-03-25T02:35:49;9.03;;;2.30;;
17052;SDS011;8643;48.824;11.422;2024-03-25T02:38:17;4.90;;;2.50;;
17052;SDS011;8643;48.824;11.422;2024-03-25T02:40:44;5.43;;;2.63;;
17052;SDS011;8643;48.824;11.422;2024-03-25T02:43:13;5.00;;;2.47;;
17052;SDS011;8643;48.824;11.422;2024-03-25T02:45:40;5.07;;;2.40;;
17052;SDS011;8643;48.824;11.422;2024-03-25T02:48:08;3.63;;;2.20;;
17052;SDS011;8643;48.824;11.422;2024-03-25T02:50:34;5.57;;;2.53;;
17052;SDS011;8643;48.824;11.422;2024-03-25T02:53:02;6.53;;;2.40;;
17052;SDS011;8643;48.824;11.422;2024-03-25T02:55:29;5.73;;;2.73;;
17052;SDS011;8643;48.824;11.422;2024-03-25T02:57:56;4.77;;;2.23;;
17052;SDS011;8643;48.824;11.422;2024-03-25T03:00:24;5.10;;;2.53;;
17052;SDS011;8643;48.824;11.422;2024-03-25T03:02:51;6.10;;;2.63;;
17052;SDS011;8643;48.824;11.422;2024-03-25T03:05:18;4.40;;;2.23;;
17052;SDS011;8643;48.824;11.422;2024-03-25T03:07:46;6.03;;;2.30;;
17052;SDS011;8643;48.824;11.422;2024-03-25T03:10:12;3.93;;;2.40;;
17052;SDS011;8643;48.824;11.422;2024-03-25T03:12:41;6.30;;;2.70;;
17052;SDS011;8643;48.824;11.422;2024-03-25T03:15:08;3.87;;;2.53;;
17052;SDS011;8643;48.824;11.422;2024-03-25T03:17:37;7.27;;;2.77;;
17052;SDS011;8643;48.824;11.422;2024-03-25T03:20:05;3.93;;;2.43;;
17052;SDS011;8643;48.824;11.422;2024-03-25T03:22:35;5.37;;;2.50;;
17052;SDS011;8643;48.824;11.422;2024-03-25T03:25:01;6.03;;;2.60;;
17052;SDS011;8643;48.824;11.422;2024-03-25T03:27:30;6.70;;;2.40;;
17052;SDS011;8643;48.824;11.422;2024-03-25T03:29:57;5.83;;;2.60;;
17052;SDS011;8643;48.824;11.422;2024-03-25T03:32:24;5.67;;;2.53;;
17052;SDS011;8643;48.824;11.422;2024-03-25T03:34:52;5.43;;;2.10;;
17052;SDS011;8643;48.824;11.422;2024-03-25T03:37:20;3.30;;;2.30;;
17052;SDS011;8643;48.824;11.422;2024-03-25T03:39:47;5.97;;;2.40;;
17052;SDS011;8643;48.824;11.422;2024-03-25T03:42:15;6.37;;;2.53;;
17052;SDS011;8643;48.824;11.422;2024-03-25T03:44:42;3.90;;;2.50;;
17052;SDS011;8643;48.824;11.422;2024-03-25T03:47:10;4.97;;;2.53;;
17052;SDS011;8643;48.824;11.422;2024-03-25T03:49:36;5.43;;;2.50;;
17052;SDS011;8643;48.824;11.422;2024-03-25T03:52:05;6.57;;;2.60;;
17052;SDS011;8643;48.824;11.422;2024-03-25T03:54:32;4.93;;;2.53;;
17052;SDS011;8643;48.824;11.422;2024-03-25T03:56:59;6.00;;;2.67;;
17052;SDS011;8643;48.824;11.422;2024-03-25T03:59:26;4.87;;;2.70;;
17052;SDS011;8643;48.824;11.422;2024-03-25T04:01:54;4.77;;;2.43;;
17052;SDS011;8643;48.824;11.422;2024-03-25T04:04:21;6.90;;;2.67;;
17052;SDS011;8643;48.824;11.422;2024-03-25T04:06:48;7.67;;;2.87;;
17052;SDS011;8643;48.824;11.422;2024-03-25T04:09:16;7.53;;;2.90;;
17052;SDS011;8643;48.824;11.422;2024-03-25T04:11:44;4.43;;;2.57;;
17052;SDS011;8643;48.824;11.422;2024-03-25T04:14:11;5.37;;;2.53;;
17052;SDS011;8643;48.824;11.422;2024-03-25T04:16:39;8.47;;;3.10;;
17052;SDS011;8643;48.824;11.422;2024-03-25T04:19:06;7.37;;;3.10;;
17052;SDS011;8643;48.824;11.422;2024-03-25T04:21:33;7.27;;;3.10;;
17052;SDS011;8643;48.824;11.422;2024-03-25T04:24:00;5.63;;;2.87;;
17052;SDS011;8643;48.824;11.422;2024-03-25T04:26:30;5.57;;;2.67;;
17052;SDS011;8643;48.824;11.422;2024-03-25T04:28:56;6.07;;;3.20;;
17052;SDS011;8643;48.824;11.422;2024-03-25T04:31:24;7.40;;;3.20;;
17052;SDS011;8643;48.824;11.422;2024-03-25T04:33:50;8.87;;;3.50;;
17052;SDS011;8643;48.824;11.422;2024-03-25T04:36:17;6.63;;;3.10;;
17052;SDS011;8643;48.824;11.422;2024-03-25T04:38:44;7.77;;;3.30;;
17052;SDS011;8643;48.824;11.422;2024-03-25T04:41:11;10.03;;;3.13;;
17052;SDS011;8643;48.824;11.422;2024-03-25T04:43:39;5.73;;;2.80;;
17052;SDS011;8643;48.824;11.422;2024-03-25T04:46:05;7.43;;;3.53;;
17052;SDS011;8643;48.824;11.422;2024-03-25T04:48:32;7.97;;;3.70;;
17052;SDS011;8643;48.824;11.422;2024-03-25T04:50:58;9.40;;;3.10;;
17052;SDS011;8643;48.824;11.422;2024-03-25T04:53:25;9.50;;;3.50;;
17052;SDS011;8643;48.824;11.422;2024-03-25T04:55:52;5.40;;;3.07;;
17052;SDS011;8643;48.824;11.422;2024-03-25T04:58:19;9.43;;;3.47;;
17052;SDS011;8643;48.824;11.422;2024-03-25T05:00:47;6.00;;;3.50;;
17052;SDS011;8643;48.824;11.422;2024-03-25T05:03:13;8.30;;;3.80;;
17052;SDS011;8643;48.824;11.422;2024-03-25T05:05:40;6.63;;;3.40;;
17052;SDS011;8643;48.824;11.422;2024-03-25T05:08:06;6.13;;;3.17;;
17052;SDS011;8643;48.824;11.422;2024-03-25T05:10:33;7.13;;;2.67;;
17052;SDS011;8643;48.824;11.422;2024-03-25T05:13:00;7.70;;;3.20;;
17052;SDS011;8643;48.824;11.422;2024-03-25T05:15:26;6.47;;;3.20;;
17052;SDS011;8643;48.824;11.422;2024-03-25T05:17:55;6.57;;;3.40;;
17052;SDS011;8643;48.824;11.422;2024-03-25T05:20:22;8.03;;;3.37;;
17052;SDS011;8643;48.824;11.422;2024-03-25T05:22:49;10.13;;;3.80;;
17052;SDS011;8643;48.824;11.422;2024-03-25T05:25:15;8.57;;;3.47;;
17052;SDS011;8643;48.824;11.422;2024-03-25T05:27:42;8.43;;;3.60;;
17052;SDS011;8643;48.824;11.422;2024-03-25T05:30:08;8.80;;;3.90;;
17052;SDS011;8643;48.824;11.422;2024-03-25T05:32:36;9.03;;;3.77;;
17052;SDS011;8643;48.824;11.422;2024-03-25T05:35:05;8.23;;;4.20;;
17052;SDS011;8643;48.824;11.422;2024-03-25T05:37:32;12.23;;;4.20;;
17052;SDS011;8643;48.824;11.422;2024-03-25T05:39:59;8.37;;;3.73;;
17052;SDS011;8643;48.824;11.422;2024-03-25T05:42:25;7.80;;;3.20;;
17052;SDS011;8643;48.824;11.422;2024-03-25T05:44:52;9.60;;;3.93;;
17052;SDS011;8643;48.824;11.422;2024-03-25T05:47:19;9.83;;;3.80;;
17052;SDS011;8643;48.824;11.422;2024-03-25T05:49:46;6.67;;;3.00;;
17052;SDS011;8643;48.824;11.422;2024-03-25T05:52:14;8.87;;;3.30;;
17052;SDS011;8643;48.824;11.422;2024-03-25T05:54:41;7.63;;;3.33;;
17052;SDS011;8643;48.824;11.422;2024-03-25T05:57:08;10.23;;;3.77;;
17052;SDS011;8643;48.824;11.422;2024-03-25T05:59:34;11.03;;;4.53;;
17052;SDS011;8643;48.824;11.422;2024-03-25T06:02:01;8.77;;;3.37;;
17052;SDS011;8643;48.824;11.422;2024-03-25T06:04:27;7.80;;;3.50;;
17052;SDS011;8643;48.824;11.422;2024-03-25T06:06:54;8.77;;;3.20;;
17052;SDS011;8643;48.824;11.422;2024-03-25T06:09:25;9.83;;;3.53;;
17052;SDS011;8643;48.824;11.422;2024-03-25T06:11:52;6.23;;;3.10;;
17052;SDS011;8643;48.824;11.422;2024-03-25T06:14:19;7.07;;;2.60;;
17052;SDS011;8643;48.824;11.422;2024-03-25T06:16:45;6.23;;;2.87;;
17052;SDS011;8643;48.824;11.422;2024-03-25T06:19:12;4.47;;;2.77;;
17052;SDS011;8643;48.824;11.422;2024-03-25T06:21:38;5.60;;;2.93;;
17052;SDS011;8643;48.824;11.422;2024-03-25T06:24:05;6.57;;;3.10;;
17052;SDS011;8643;48.824;11.422;2024-03-25T06:26:34;7.27;;;3.20;;
17052;SDS011;8643;48.824;11.422;2024-03-25T06:29:01;7.90;;;3.10;;
17052;SDS011;8643;48.824;11.422;2024-03-25T06:31:28;7.07;;;2.90;;
17052;SDS011;8643;48.824;11.422;2024-03-25T06:34:13;8.73;;;2.90;;
17052;SDS011;8643;48.824;11.422;2024-03-25T06:36:40;5.83;;;2.80;;
17052;SDS011;8643;48.824;11.422;2024-03-25T06:39:06;8.37;;;3.23;;
17052;SDS011;8643;48.824;11.422;2024-03-25T06:41:34;5.53;;;3.07;;
17052;SDS011;8643;48.824;11.422;2024-03-25T06:44:01;5.83;;;3.20;;
17052;SDS011;8643;48.824;11.422;2024-03-25T06:46:28;5.57;;;3.17;;
17052;SDS011;8643;48.824;11.422;2024-03-25T06:48:55;7.00;;;2.80;;
17052;SDS011;8643;48.824;11.422;2024-03-25T06:51:22;7.03;;;3.20;;
17052;SDS011;8643;48.824;11.422;2024-03-25T06:53:49;9.73;;;4.00;;
17052;SDS011;8643;48.824;11.422;2024-03-25T06:56:17;7.20;;;3.70;;
17052;SDS011;8643;48.824;11.422;2024-03-25T06:58:45;9.00;;;4.17;;
17052;SDS011;8643;48.824;11.422;2024-03-25T07:01:12;8.67;;;3.93;;
17052;SDS011;8643;48.824;11.422;2024-03-25T07:03:39;7.83;;;3.20;;
17052;SDS011;8643;48.824;11.422;2024-03-25T07:06:06;8.97;;;3.50;;
17052;SDS011;8643;48.824;11.422;2024-03-25T07:08:32;8.10;;;3.60;;
17052;SDS011;8643;48.824;11.422;2024-03-25T07:10:59;8.10;;;3.23;;
17052;SDS011;8643;48.824;11.422;2024-03-25T07:13:25;7.23;;;3.40;;
17052;SDS011;8643;48.824;11.422;2024-03-25T07:15:53;5.67;;;2.87;;
17052;SDS011;8643;48.824;11.422;2024-03-25T07:18:20;7.17;;;3.40;;
17052;SDS011;8643;48.824;11.422;2024-03-25T07:20:46;5.53;;;2.93;;
17052;SDS011;8643;48.824;11.422;2024-03-25T07:23:13;7.43;;;3.60;;
17052;SDS011;8643;48.824;11.422;2024-03-25T07:25:40;6.93;;;3.33;;
17052;SDS011;8643;48.824;11.422;2024-03-25T07:28:06;5.40;;;3.30;;
17052;SDS011;8643;48.824;11.422;2024-03-25T07:30:33;6.80;;;3.67;;
17052;SDS011;8643;48.824;11.422;2024-03-25T07:33:01;7.37;;;3.43;;
17052;SDS011;8643;48.824;11.422;2024-03-25T07:35:28;6.27;;;3.47;;
17052;SDS011;8643;48.824;11.422;2024-03-25T07:37:55;9.53;;;3.50;;
17052;SDS011;8643;48.824;11.422;2024-03-25T07:40:22;6.67;;;3.37;;
17052;SDS011;8643;48.824;11.422;2024-03-25T07:42:49;7.17;;;2.90;;
17052;SDS011;8643;48.824;11.422;2024-03-25T07:45:15;6.00;;;3.30;;
17052;SDS011;8643;48.824;11.422;2024-03-25T07:47:42;9.40;;;3.50;;
17052;SDS011;8643;48.824;11.422;2024-03-25T07:50:12;6.20;;;3.37;;
17052;SDS011;8643;48.824;11.422;2024-03-25T07:52:39;6.70;;;3.70;;
17052;SDS011;8643;48.824;11.422;2024-03-25T07:55:06;6.57;;;3.77;;
17052;SDS011;8643;48.824;11.422;2024-03-25T07:57:33;7.80;;;3.50;;
17052;SDS011;8643;48.824;11.422;2024-03-25T08:00:00;6.60;;;3.00;;
17052;SDS011;8643;48.824;11.422;2024-03-25T08:02:27;5.80;;;3.50;;
17052;SDS011;8643;48.824;11.422;2024-03-25T08:04:53;6.90;;;3.47;;
17052;SDS011;8643;48.824;11.422;2024-03-25T08:07:21;7.03;;;3.43;;
17052;SDS011;8643;48.824;11.422;2024-03-25T08:09:49;7.37;;;3.20;;
17052;SDS011;8643;48.824;11.422;2024-03-25T08:12:15;7.57;;;3.60;;
17052;SDS011;8643;48.824;11.422;2024-03-25T08:14:42;5.93;;;3.33;;
17052;SDS011;8643;48.824;11.422;2024-03-25T08:17:09;8.10;;;3.50;;
17052;SDS011;8643;48.824;11.422;2024-03-25T08:19:37;7.10;;;3.57;;
17052;SDS011;8643;48.824;11.422;2024-03-25T08:22:04;4.57;;;3.00;;
17052;SDS011;8643;48.824;11.422;2024-03-25T08:24:32;5.07;;;3.40;;
17052;SDS011;8643;48.824;11.422;2024-03-25T08:26:59;5.13;;;3.50;;
17052;SDS011;8643;48.824;11.422;2024-03-25T08:29:25;6.57;;;3.40;;
17052;SDS011;8643;48.824;11.422;2024-03-25T08:31:52;5.97;;;3.60;;
17052;SDS011;8643;48.824;11.422;2024-03-25T08:34:19;7.03;;;3.73;;
17052;SDS011;8643;48.824;11.422;2024-03-25T08:36:45;7.90;;;3.73;;
17052;SDS011;8643;48.824;11.422;2024-03-25T08:39:12;8.77;;;3.43;;
17052;SDS011;8643;48.824;11.422;2024-03-25T08:41:39;5.97;;;3.33;;
17052;SDS011;8643;48.824;11.422;2024-03-25T08:44:06;7.00;;;3.83;;
17052;SDS011;8643;48.824;11.422;2024-03-25T08:46:33;8.23;;;3.60;;
17052;SDS011;8643;48.824;11.422;2024-03-25T08:48:59;6.80;;;3.60;;
17052;SDS011;8643;48.824;11.422;2024-03-25T08:51:26;6.37;;;3.87;;
17052;SDS011;8643;48.824;11.422;2024-03-25T08:53:52;6.93;;;3.80;;
17052;SDS011;8643;48.824;11.422;2024-03-25T08:56:19;9.27;;;4.17;;
17052;SDS011;8643;48.824;11.422;2024-03-25T08:58:47;7.77;;;4.10;;
17052;SDS011;8643;48.824;11.422;2024-03-25T09:01:14;8.27;;;3.50;;
17052;SDS011;8643;48.824;11.422;2024-03-25T09:03:40;9.73;;;3.90;;
17052;SDS011;8643;48.824;11.422;2024-03-25T09:06:07;8.77;;;3.83;;
17052;SDS011;8643;48.824;11.422;2024-03-25T09:08:33;8.07;;;3.57;;
17052;SDS011;8643;48.824;11.422;2024-03-25T09:11:00;8.73;;;3.20;;
17052;SDS011;8643;48.824;11.422;2024-03-25T09:13:29;6.00;;;3.67;;
17052;SDS011;8643;48.824;11.422;2024-03-25T09:15:58;7.87;;;3.60;;
17052;SDS011;8643;48.824;11.422;2024-03-25T09:18:24;6.43;;;3.80;;
17052;SDS011;8643;48.824;11.422;2024-03-25T09:20:52;8.27;;;3.70;;
17052;SDS011;8643;48.824;11.422;2024-03-25T09:23:19;5.20;;;3.40;;
17052;SDS011;8643;48.824;11.422;2024-03-25T09:25:52;6.70;;;3.73;;
17052;SDS011;8643;48.824;11.422;2024-03-25T09:28:19;8.53;;;4.23;;
17052;SDS011;8643;48.824;11.422;2024-03-25T09:30:47;6.53;;;3.70;;
17052;SDS011;8643;48.824;11.422;2024-03-25T09:33:15;7.30;;;3.63;;
17052;SDS011;8643;48.824;11.422;2024-03-25T09:35:42;8.13;;;3.60;;
17052;SDS011;8643;48.824;11.422;2024-03-25T09:38:08;7.13;;;3.70;;
17052;SDS011;8643;48.824;11.422;2024-03-25T09:40:35;7.90;;;4.03;;
17052;SDS011;8643;48.824;11.422;2024-03-25T09:43:06;7.03;;;3.60;;
17052;SDS011;8643;48.824;11.422;2024-03-25T09:45:42;9.97;;;3.80;;
17052;SDS011;8643;48.824;11.422;2024-03-25T09:48:14;7.17;;;3.70;;
17052;SDS011;8643;48.824;11.422;2024-03-25T09:50:47;7.60;;;4.10;;
17052;SDS011;8643;48.824;11.422;2024-03-25T09:53:15;7.70;;;3.70;;
17052;SDS011;8643;48.824;11.422;2024-03-25T09:55:42;7.13;;;3.50;;
17052;SDS011;8643;48.824;11.422;2024-03-25T09:58:09;5.57;;;3.23;;
17052;SDS011;8643;48.824;11.422;2024-03-25T10:00:36;7.47;;;3.60;;
17052;SDS011;8643;48.824;11.422;2024-03-25T10:03:03;7.03;;;3.60;;
17052;SDS011;8643;48.824;11.422;2024-03-25T10:05:31;6.87;;;3.47;;
17052;SDS011;8643;48.824;11.422;2024-03-25T10:07:58;7.50;;;3.70;;
17052;SDS011;8643;48.824;11.422;2024-03-25T10:10:25;7.10;;;3.50;;
17052;SDS011;8643;48.824;11.422;2024-03-25T10:12:54;5.40;;;3.43;;
17052;SDS011;8643;48.824;11.422;2024-03-25T10:15:21;6.47;;;3.50;;
17052;SDS011;8643;48.824;11.422;2024-03-25T10:17:48;6.27;;;3.50;;
17052;SDS011;8643;48.824;11.422;2024-03-25T10:20:16;10.60;;;3.60;;
17052;SDS011;8643;48.824;11.422;2024-03-25T10:22:44;5.57;;;3.30;;
17052;SDS011;8643;48.824;11.422;2024-03-25T10:25:21;8.27;;;3.90;;
17052;SDS011;8643;48.824;11.422;2024-03-25T10:27:52;5.00;;;2.73;;
17052;SDS011;8643;48.824;11.422;2024-03-25T10:30:20;5.40;;;2.83;;
17052;SDS011;8643;48.824;11.422;2024-03-25T10:32:57;5.80;;;3.20;;
17052;SDS011;8643;48.824;11.422;2024-03-25T10:35:25;5.87;;;3.17;;
17052;SDS011;8643;48.824;11.422;2024-03-25T10:37:57;6.00;;;3.10;;
17052;SDS011;8643;48.824;11.422;2024-03-25T10:40:26;5.43;;;2.73;;
17052;SDS011;8643;48.824;11.422;2024-03-25T10:43:00;5.17;;;3.20;;
17052;SDS011;8643;48.824;11.422;2024-03-25T10:45:30;4.87;;;2.90;;
17052;SDS011;8643;48.824;11.422;2024-03-25T10:47:59;3.67;;;2.57;;
17052;SDS011;8643;48.824;11.422;2024-03-25T10:50:32;4.60;;;2.73;;
17052;SDS011;8643;48.824;11.422;2024-03-25T10:53:02;4.10;;;2.60;;
17052;SDS011;8643;48.824;11.422;2024-03-25T10:55:32;6.77;;;3.00;;
17052;SDS011;8643;48.824;11.422;2024-03-25T10:58:02;5.03;;;2.63;;
17052;SDS011;8643;48.824;11.422;2024-03-25T11:00:30;5.97;;;2.97;;
17052;SDS011;8643;48.824;11.422;2024-03-25T11:02:58;6.87;;;2.80;;
17052;SDS011;8643;48.824;11.422;2024-03-25T11:05:25;5.23;;;2.80;;
17052;SDS011;8643;48.824;11.422;2024-03-25T11:07:52;4.38;;;2.78;;
17052;SDS011;8643;48.824;11.422;2024-03-25T11:10:28;5.38;;;2.70;;
17052;SDS011;8643;48.824;11.422;2024-03-25T11:12:55;4.57;;;2.90;;
17052;SDS011;8643;48.824;11.422;2024-03-25T11:15:22;5.95;;;2.72;;
17052;SDS011;8643;48.824;11.422;2024-03-25T11:17:49;4.70;;;2.80;;
17052;SDS011;8643;48.824;11.422;2024-03-25T11:20:16;5.90;;;2.85;;
17052;SDS011;8643;48.824;11.422;2024-03-25T11:22:47;5.22;;;2.42;;
17052;SDS011;8643;48.824;11.422;2024-03-25T11:25:14;4.72;;;2.70;;
17052;SDS011;8643;48.824;11.422;2024-03-25T11:27:44;5.28;;;2.55;;
17052;SDS011;8643;48.824;11.422;2024-03-25T11:30:11;7.93;;;3.05;;
17052;SDS011;8643;48.824;11.422;2024-03-25T11:32:45;5.13;;;2.72;;
17052;SDS011;8643;48.824;11.422;2024-03-25T11:35:18;5.50;;;2.80;;
17052;SDS011;8643;48.824;11.422;2024-03-25T11:37:45;5.50;;;2.58;;
17052;SDS011;8643;48.824;11.422;2024-03-25T11:40:12;4.57;;;2.55;;
17052;SDS011;8643;48.824;11.422;2024-03-25T11:42:40;5.07;;;2.25;;
17052;SDS011;8643;48.824;11.422;2024-03-25T11:45:14;4.85;;;2.50;;
17052;SDS011;8643;48.824;11.422;2024-03-25T11:47:43;5.78;;;2.30;;
17052;SDS011;8643;48.824;11.422;2024-03-25T11:50:11;2.97;;;2.08;;
17052;SDS011;8643;48.824;11.422;2024-03-25T11:52:40;3.85;;;2.17;;
17052;SDS011;8643;48.824;11.422;2024-03-25T11:55:07;7.95;;;2.42;;
17052;SDS011;8643;48.824;11.422;2024-03-25T11:57:35;4.20;;;2.25;;
17052;SDS011;8643;48.824;11.422;2024-03-25T12:00:03;4.43;;;2.33;;
17052;SDS011;8643;48.824;11.422;2024-03-25T12:02:40;3.95;;;2.70;;
17052;SDS011;8643;48.824;11.422;2024-03-25T12:05:10;4.80;;;2.50;;
17052;SDS011;8643;48.824;11.422;2024-03-25T12:07:37;4.13;;;2.30;;
17052;SDS011;8643;48.824;11.422;2024-03-25T12:10:04;4.47;;;2.33;;
17052;SDS011;8643;48.824;11.422;2024-03-25T12:12:50;4.72;;;2.75;;
17052;SDS011;8643;48.824;11.422;2024-03-25T12:15:20;3.90;;;2.50;;
17052;SDS011;8643;48.824;11.422;2024-03-25T12:17:48;4.00;;;2.53;;
17052;SDS011;8643;48.824;11.422;2024-03-25T12:20:16;5.53;;;2.70;;
17052;SDS011;8643;48.824;11.422;2024-03-25T12:22:43;4.80;;;3.20;;
17052;SDS011;8643;48.824;11.422;2024-03-25T12:25:10;5.25;;;2.97;;
17052;SDS011;8643;48.824;11.422;2024-03-25T12:27:38;6.40;;;2.75;;
17052;SDS011;8643;48.824;11.422;2024-03-25T12:30:07;3.88;;;2.80;;
17052;SDS011;8643;48.824;11.422;2024-03-25T12:32:35;3.97;;;2.67;;
17052;SDS011;8643;48.824;11.422;2024-03-25T12:35:05;4.57;;;2.65;;
17052;SDS011;8643;48.824;11.422;2024-03-25T12:37:33;4.93;;;2.90;;
17052;SDS011;8643;48.824;11.422;2024-03-25T12:40:01;5.55;;;2.85;;
17052;SDS011;8643;48.824;11.422;2024-03-25T12:42:29;4.07;;;2.40;;
17052;SDS011;8643;48.824;11.422;2024-03-25T12:44:56;3.63;;;2.50;;
17052;SDS011;8643;48.824;11.422;2024-03-25T12:47:23;3.40;;;2.40;;
17052;SDS011;8643;48.824;11.422;2024-03-25T12:49:49;4.82;;;2.80;;
17052;SDS011;8643;48.824;11.422;2024-03-25T12:52:17;4.43;;;2.60;;
17052;SDS011;8643;48.824;11.422;2024-03-25T12:54:44;5.65;;;2.58;;
17052;SDS011;8643;48.824;11.422;2024-03-25T12:57:11;4.50;;;2.53;;
17052;SDS011;8643;48.824;11.422;2024-03-25T12:59:37;4.35;;;2.92;;
17052;SDS011;8643;48.824;11.422;2024-03-25T13:02:04;3.42;;;2.67;;
17052;SDS011;8643;48.824;11.422;2024-03-25T13:04:35;5.35;;;3.30;;
17052;SDS011;8643;48.824;11.422;2024-03-25T13:07:01;3.88;;;2.55;;
17052;SDS011;8643;48.824;11.422;2024-03-25T13:09:29;3.40;;;2.70;;
17052;SDS011;8643;48.824;11.422;2024-03-25T13:11:56;3.88;;;2.70;;
17052;SDS011;8643;48.824;11.422;2024-03-25T13:14:23;5.10;;;2.83;;
17052;SDS011;8643;48.824;11.422;2024-03-25T13:16:50;3.90;;;2.75;;
17052;SDS011;8643;48.824;11.422;2024-03-25T13:19:17;4.25;;;2.88;;
17052;SDS011;8643;48.824;11.422;2024-03-25T13:21:44;5.25;;;2.42;;
17052;SDS011;8643;48.824;11.422;2024-03-25T13:24:10;3.63;;;2.85;;
17052;SDS011;8643;48.824;11.422;2024-03-25T13:26:38;4.47;;;2.67;;
17052;SDS011;8643;48.824;11.422;2024-03-25T13:29:05;5.00;;;2.88;;
17052;SDS011;8643;48.824;11.422;2024-03-25T13:31:32;4.97;;;3.13;;
17052;SDS011;8643;48.824;11.422;2024-03-25T13:33:59;4.85;;;2.72;;
17052;SDS011;8643;48.824;11.422;2024-03-25T13:36:25;3.72;;;2.60;;
17052;SDS011;8643;48.824;11.422;2024-03-25T13:38:52;4.80;;;2.85;;
17052;SDS011;8643;48.824;11.422;2024-03-25T13:41:18;3.47;;;2.42;;
17052;SDS011;8643;48.824;11.422;2024-03-25T13:43:46;4.55;;;2.40;;
17052;SDS011;8643;48.824;11.422;2024-03-25T13:46:13;4.43;;;2.33;;
17052;SDS011;8643;48.824;11.422;2024-03-25T13:48:40;3.15;;;2.20;;
17052;SDS011;8643;48.824;11.422;2024-03-25T13:51:07;4.10;;;2.33;;
17052;SDS011;8643;48.824;11.422;2024-03-25T13:53:33;3.40;;;2.50;;
17052;SDS011;8643;48.824;11.422;2024-03-25T13:56:00;4.28;;;2.40;;
17052;SDS011;8643;48.824;11.422;2024-03-25T13:58:27;4.22;;;2.40;;
17052;SDS011;8643;48.824;11.422;2024-03-25T14:00:55;3.58;;;2.10;;
17052;SDS011;8643;48.824;11.422;2024-03-25T14:03:21;2.90;;;2.35;;
17052;SDS011;8643;48.824;11.422;2024-03-25T14:05:48;3.17;;;2.30;;
17052;SDS011;8643;48.824;11.422;2024-03-25T14:08:14;2.97;;;2.22;;
17052;SDS011;8643;48.824;11.422;2024-03-25T14:10:42;3.50;;;2.25;;
17052;SDS011;8643;48.824;11.422;2024-03-25T14:13:09;3.35;;;2.15;;
17052;SDS011;8643;48.824;11.422;2024-03-25T14:15:36;2.80;;;2.05;;
17052;SDS011;8643;48.824;11.422;2024-03-25T14:18:04;3.92;;;2.28;;
17052;SDS011;8643;48.824;11.422;2024-03-25T14:20:31;4.70;;;2.30;;
17052;SDS011;8643;48.824;11.422;2024-03-25T14:22:58;3.90;;;2.38;;
17052;SDS011;8643;48.824;11.422;2024-03-25T14:25:24;4.90;;;2.38;;
17052;SDS011;8643;48.824;11.422;2024-03-25T14:27:51;5.63;;;2.45;;
17052;SDS011;8643;48.824;11.422;2024-03-25T14:30:17;5.07;;;2.40;;
17052;SDS011;8643;48.824;11.422;2024-03-25T14:32:44;3.13;;;1.98;;
17052;SDS011;8643;48.824;11.422;2024-03-25T14:35:12;2.92;;;1.92;;
17052;SDS011;8643;48.824;11.422;2024-03-25T14:37:38;3.67;;;2.10;;
17052;SDS011;8643;48.824;11.422;2024-03-25T14:40:05;2.67;;;2.08;;
17052;SDS011;8643;48.824;11.422;2024-03-25T14:42:32;4.57;;;2.30;;
17052;SDS011;8643;48.824;11.422;2024-03-25T14:44:59;4.05;;;2.20;;
17052;SDS011;8643;48.824;11.422;2024-03-25T14:47:25;2.75;;;1.58;;
17052;SDS011;8643;48.824;11.422;2024-03-25T14:49:52;3.75;;;2.10;;